Tamrey S — TCA4286 — position and weather

sailwx.info

Track history (hours):
 
Tides and Currents Weather Stations Pressure Air Temp Water Temp Dewpoint Dewpoint Depression Visibility Wind Speed Wind Dir Waves Ship Positions

Tamrey S

Last reported at 2018-Nov-08 00:49 UTC. Time now 2018-Nov-17 04:25 UTC.
Position N 44°51' E 030°31'.
Warning: this ship's position is 9 days out of date.

Length 176 m; draft 9.9 m.

Type: Cargo ship. MMSI: 271044600.

Date/timePositionNaut miles runAvg speedWind from/ knotsBaromVisibWave heightAir tempDewpointWater temp
2018-Nov-08 00:49N 44°51' E 030°31'210.3
2018-Nov-08 00:35N 44°53' E 030°32'3510.2
2018-Nov-07 21:10N 45°26' E 030°46'49 9.1
2018-Nov-07 15:46N 46°15' E 030°54'410.1
2018-Nov-07 15:21N 46°19' E 030°56'310.0
2018-Nov-07 15:01N 46°22' E 030°56'510.0
2018-Nov-07 14:31N 46°27' E 030°55'5 9.6
2018-Nov-07 14:02N 46°32' E 030°56'21 9.1
2018-Nov-07 11:47N 46°35' E 031°25'3 8.4
2018-Nov-07 11:27N 46°36' E 031°29'5 7.7
2018-Nov-07 10:46N 46°35' E 031°37'2 8.3
2018-Nov-07 10:31N 46°36' E 031°40'6 8.4
2018-Nov-07 09:49N 46°36' E 031°48'2 8.2
2018-Nov-07 09:32N 46°37' E 031°51'4 7.9
2018-Nov-07 09:03N 46°39' E 031°56'4 8.3
2018-Nov-07 08:32N 46°43' E 031°56'4 7.6
2018-Nov-07 08:03N 46°47' E 031°53'4 7.1
2018-Nov-07 07:33N 46°50' E 031°56'2 4.7
2018-Nov-07 07:02N 46°51' E 031°58'0 0.9
2018-Nov-07 06:32N 46°51' E 031°59'0 0.0
2018-Nov-07 06:02N 46°51' E 031°59'0 0.0
2018-Nov-07 05:29N 46°51' E 031°59'0 0.0
2018-Nov-07 05:02N 46°51' E 031°59'0 0.0
2018-Nov-07 04:32N 46°51' E 031°59'0 0.0
2018-Nov-06 23:29N 46°51' E 031°59'0 0.0
2018-Nov-06 23:02N 46°51' E 031°59'0 0.1
2018-Nov-06 22:59N 46°51' E 031°59'0 0.0
2018-Nov-06 21:59N 46°51' E 031°59'0 0.0
2018-Nov-06 21:29N 46°51' E 031°59'0 0.0
2018-Nov-06 21:02N 46°51' E 031°59'0 0.1
2018-Nov-06 20:59N 46°51' E 031°59'0 0.0
2018-Nov-06 20:29N 46°51' E 031°59'0 0.0
2018-Nov-06 20:02N 46°51' E 031°59'0 0.1
2018-Nov-06 19:59N 46°51' E 031°59'0 0.0
2018-Nov-06 19:29N 46°51' E 031°59'0 0.0
2018-Nov-06 19:02N 46°51' E 031°59'0 0.1
2018-Nov-06 18:59N 46°51' E 031°59'0 0.0
2018-Nov-06 18:29N 46°51' E 031°59'0 0.0
2018-Nov-06 18:02N 46°51' E 031°59'0 0.1
2018-Nov-06 17:59N 46°51' E 031°59'0 0.0
2018-Nov-06 17:29N 46°51' E 031°59'0 0.0
2018-Nov-06 17:02N 46°51' E 031°59'0 0.0
2018-Nov-06 16:59N 46°51' E 031°59'0 0.0
2018-Nov-06 16:29N 46°51' E 031°59'0 0.0
2018-Nov-06 16:02N 46°51' E 031°59'0 0.1
2018-Nov-06 15:56N 46°51' E 031°59'0 0.0
2018-Nov-06 15:29N 46°51' E 031°59'0 0.0
2018-Nov-06 15:02N 46°51' E 031°59'0 0.1
2018-Nov-06 14:59N 46°51' E 031°59'0 0.0
2018-Nov-06 14:26N 46°51' E 031°59'0 0.0
2018-Nov-06 13:59N 46°51' E 031°59'0 0.0
2018-Nov-06 13:29N 46°51' E 031°59'0 0.0
2018-Nov-06 13:02N 46°51' E 031°59'0 0.1
2018-Nov-06 12:59N 46°51' E 031°59'0 0.0
2018-Nov-06 12:29N 46°51' E 031°59'0 0.0
2018-Nov-06 12:02N 46°51' E 031°59'0 0.1
2018-Nov-06 11:59N 46°51' E 031°59'0 0.0
2018-Nov-06 11:29N 46°51' E 031°59'0 0.0
2018-Nov-06 11:02N 46°51' E 031°59'0 0.1
2018-Nov-06 10:59N 46°51' E 031°59'0 0.0
2018-Nov-06 10:29N 46°51' E 031°59'0 0.0
2018-Nov-06 10:02N 46°51' E 031°59'0 0.3
2018-Nov-06 09:59N 46°51' E 031°59'0 0.0
2018-Nov-06 09:29N 46°51' E 031°59'0 0.0
2018-Nov-06 09:02N 46°51' E 031°59'0 0.1
2018-Nov-06 08:59N 46°51' E 031°59'0 0.0
2018-Nov-06 08:29N 46°51' E 031°59'0 0.0
2018-Nov-06 07:59N 46°51' E 031°59'0 0.0
2018-Nov-06 07:29N 46°51' E 031°59'0 0.0
2018-Nov-06 07:02N 46°51' E 031°59'0 0.1
2018-Nov-06 06:59N 46°51' E 031°59'0 0.0
2018-Nov-06 06:26N 46°51' E 031°59'0 0.0
2018-Nov-06 06:02N 46°51' E 031°59'0 0.1
2018-Nov-06 05:59N 46°51' E 031°59'0 0.0
2018-Nov-06 05:29N 46°51' E 031°59'0 0.0
2018-Nov-06 05:02N 46°51' E 031°59'0 0.2
2018-Nov-06 04:59N 46°51' E 031°59'0 0.0
2018-Nov-06 04:29N 46°51' E 031°59'0 0.0
2018-Nov-06 03:59N 46°51' E 031°59'0 0.0
2018-Nov-06 03:29N 46°51' E 031°59'0 0.0
2018-Nov-06 03:02N 46°51' E 031°59'0 0.1
2018-Nov-06 02:59N 46°51' E 031°59'0 0.0
2018-Nov-06 02:29N 46°51' E 031°59'0 0.0
2018-Nov-06 02:02N 46°51' E 031°59'0 0.0
2018-Nov-06 01:59N 46°51' E 031°59'0 0.0
2018-Nov-06 01:26N 46°51' E 031°59'0 0.0
2018-Nov-06 00:29N 46°51' E 031°59'0 0.0
2018-Nov-05 23:29N 46°51' E 031°59'0 0.0
2018-Nov-05 23:02N 46°51' E 031°59'0 0.1
2018-Nov-05 22:59N 46°51' E 031°59'0 0.0
2018-Nov-05 22:29N 46°51' E 031°59'0 0.0
2018-Nov-05 22:02N 46°51' E 031°59'0 0.0
2018-Nov-05 21:59N 46°51' E 031°59'0 0.0
2018-Nov-05 21:29N 46°51' E 031°59'0 0.0
2018-Nov-05 20:59N 46°51' E 031°59'0 0.0
2018-Nov-05 20:29N 46°51' E 031°59'0 0.0
2018-Nov-05 20:02N 46°51' E 031°59'0 0.1
2018-Nov-05 19:59N 46°51' E 031°59'0 0.0
2018-Nov-05 19:29N 46°51' E 031°59'0 0.0
2018-Nov-05 19:02N 46°51' E 031°59'0 0.0
2018-Nov-05 18:59N 46°51' E 031°59'0 0.0
2018-Nov-05 18:29N 46°51' E 031°59'0 0.0
2018-Nov-05 18:02N 46°51' E 031°59'0 0.1
2018-Nov-05 17:59N 46°51' E 031°59'0 0.0
2018-Nov-05 17:29N 46°51' E 031°59'0 0.0
2018-Nov-05 16:59N 46°51' E 031°59'0 0.0
2018-Nov-05 16:29N 46°51' E 031°59'0 0.0
2018-Nov-05 16:02N 46°51' E 031°59'0 0.1
2018-Nov-05 15:59N 46°51' E 031°59'0 0.0
2018-Nov-05 15:29N 46°51' E 031°59'0 0.0
2018-Nov-05 15:02N 46°51' E 031°59'0 0.0
2018-Nov-05 14:59N 46°51' E 031°59'0 0.0
2018-Nov-05 14:29N 46°51' E 031°59'0 0.0
2018-Nov-05 14:02N 46°51' E 031°59'0 0.0
2018-Nov-05 13:29N 46°51' E 031°59'0 0.0
2018-Nov-05 13:02N 46°51' E 031°59'0 0.1
2018-Nov-05 12:59N 46°51' E 031°59'0 0.0
2018-Nov-05 12:29N 46°51' E 031°59'0 0.0
2018-Nov-05 12:02N 46°51' E 031°59'0 0.1
2018-Nov-05 11:59N 46°51' E 031°59'0 0.0
2018-Nov-05 11:29N 46°51' E 031°59'0 0.0
2018-Nov-05 11:02N 46°51' E 031°59'0 0.1
2018-Nov-05 10:59N 46°51' E 031°59'0 0.0
2018-Nov-05 10:29N 46°51' E 031°59'0 0.0
2018-Nov-05 10:02N 46°51' E 031°59'0 0.0
2018-Nov-05 09:59N 46°51' E 031°59'0 0.0
2018-Nov-05 09:29N 46°51' E 031°59'0 0.0
2018-Nov-05 09:02N 46°51' E 031°59'0 0.1
2018-Nov-05 08:59N 46°51' E 031°59'0 0.0
2018-Nov-05 08:29N 46°51' E 031°59'0 0.0
2018-Nov-05 08:02N 46°51' E 031°59'0 0.1
2018-Nov-05 07:59N 46°51' E 031°59'0 0.0
2018-Nov-05 07:29N 46°51' E 031°59'0 0.0
2018-Nov-05 07:02N 46°51' E 031°59'0 0.0
2018-Nov-05 06:59N 46°51' E 031°59'0 0.0
2018-Nov-05 06:29N 46°51' E 031°59'0 0.0
2018-Nov-05 06:02N 46°51' E 031°59'0 0.1
2018-Nov-05 05:59N 46°51' E 031°59'0 0.0
2018-Nov-05 05:29N 46°51' E 031°59'0 0.0
2018-Nov-05 05:02N 46°51' E 031°59'0 0.0
2018-Nov-05 04:59N 46°51' E 031°59'0 0.0
2018-Nov-05 04:29N 46°51' E 031°59'0 0.0
2018-Nov-05 04:02N 46°51' E 031°59'0 0.0
2018-Nov-05 03:59N 46°51' E 031°59'0 0.0
2018-Nov-05 03:29N 46°51' E 031°59'0 0.0
2018-Nov-05 03:02N 46°51' E 031°59'0 0.1
2018-Nov-05 02:59N 46°51' E 031°59'0 0.0
2018-Nov-05 02:29N 46°51' E 031°59'0 0.0
2018-Nov-05 02:02N 46°51' E 031°59'0 0.1
2018-Nov-05 01:59N 46°51' E 031°59'0 0.0
2018-Nov-05 01:29N 46°51' E 031°59'0 0.0
2018-Nov-05 01:02N 46°51' E 031°59'0 0.4
2018-Nov-05 00:59N 46°51' E 031°59'0 0.0
2018-Nov-05 00:29N 46°51' E 031°59'0 0.0
2018-Nov-05 00:02N 46°51' E 031°59'0 0.0
2018-Nov-04 23:59N 46°51' E 031°59'0 0.0
2018-Nov-04 23:29N 46°51' E 031°59'0 0.0
2018-Nov-04 23:02N 46°51' E 031°59'0 0.1
2018-Nov-04 22:59N 46°51' E 031°59'0 0.0
2018-Nov-04 22:29N 46°51' E 031°59'0 0.0
2018-Nov-04 22:02N 46°51' E 031°59'0 0.1
2018-Nov-04 21:59N 46°51' E 031°59'0 0.0
2018-Nov-04 21:29N 46°51' E 031°59'0 0.0
2018-Nov-04 21:02N 46°51' E 031°59'0 0.1
2018-Nov-04 20:59N 46°51' E 031°59'0 0.0
2018-Nov-04 20:29N 46°51' E 031°59'0 0.0
2018-Nov-04 20:02N 46°51' E 031°59'0 0.0
2018-Nov-04 19:59N 46°51' E 031°59'0 0.0
2018-Nov-04 19:29N 46°51' E 031°59'0 0.0
2018-Nov-04 18:59N 46°51' E 031°59'0 0.0
2018-Nov-04 18:29N 46°51' E 031°59'0 0.0
2018-Nov-04 18:02N 46°51' E 031°59'0 0.0
2018-Nov-04 17:59N 46°51' E 031°59'0 0.0
2018-Nov-04 17:29N 46°51' E 031°59'0 0.0
2018-Nov-04 16:59N 46°51' E 031°59'0 0.0
2018-Nov-04 16:29N 46°51' E 031°59'0 0.0
2018-Nov-04 16:02N 46°51' E 031°59'0 0.1
2018-Nov-04 15:59N 46°51' E 031°59'0 0.0
2018-Nov-04 15:29N 46°51' E 031°59'0 0.0
2018-Nov-04 15:02N 46°51' E 031°59'0 0.0
2018-Nov-04 14:59N 46°51' E 031°59'0 0.0
2018-Nov-04 14:29N 46°51' E 031°59'0 0.0
2018-Nov-04 14:02N 46°51' E 031°59'0 0.1
2018-Nov-04 13:59N 46°51' E 031°59'0 0.0
2018-Nov-04 13:29N 46°51' E 031°59'0 0.0
2018-Nov-04 13:02N 46°51' E 031°59'0 0.0
2018-Nov-04 12:59N 46°51' E 031°59'0 0.0
2018-Nov-04 12:29N 46°51' E 031°59'0 0.0
2018-Nov-04 12:02N 46°51' E 031°59'0 0.0
2018-Nov-04 11:59N 46°51' E 031°59'0 0.0
2018-Nov-04 11:29N 46°51' E 031°59'0 0.0
2018-Nov-04 11:02N 46°51' E 031°59'0 0.1
2018-Nov-04 10:59N 46°51' E 031°59'0 0.0
2018-Nov-04 10:29N 46°51' E 031°59'0 0.0
2018-Nov-04 10:02N 46°51' E 031°59'0 0.1
2018-Nov-04 09:59N 46°51' E 031°59'0 0.0
2018-Nov-04 09:29N 46°51' E 031°59'0 0.0
2018-Nov-04 09:02N 46°51' E 031°59'0 0.1
2018-Nov-04 08:59N 46°51' E 031°59'0 0.0
2018-Nov-04 08:29N 46°51' E 031°59'0 0.0
2018-Nov-04 08:02N 46°51' E 031°59'0 0.0
2018-Nov-04 07:59N 46°51' E 031°59'0 0.0
2018-Nov-04 07:29N 46°51' E 031°59'0 0.0
2018-Nov-04 07:02N 46°51' E 031°59'0 0.1
2018-Nov-04 06:59N 46°51' E 031°59'0 0.0
2018-Nov-04 06:29N 46°51' E 031°59'0 0.0
2018-Nov-04 06:02N 46°51' E 031°59'0 0.1
2018-Nov-04 05:59N 46°51' E 031°59'0 0.0
2018-Nov-04 05:29N 46°51' E 031°59'0 0.0
2018-Nov-04 05:02N 46°51' E 031°59'0 0.0
2018-Nov-04 04:59N 46°51' E 031°59'0 0.0
2018-Nov-04 04:29N 46°51' E 031°59'0 0.0
2018-Nov-04 04:02N 46°51' E 031°59'0 0.1
2018-Nov-04 03:59N 46°51' E 031°59'0 0.0
2018-Nov-04 03:29N 46°51' E 031°59'0 0.0
2018-Nov-04 03:02N 46°51' E 031°59'0 0.0
2018-Nov-04 02:59N 46°51' E 031°59'0 0.0
2018-Nov-04 02:29N 46°51' E 031°59'0 0.0
2018-Nov-04 02:02N 46°51' E 031°59'0 0.1
2018-Nov-04 01:59N 46°51' E 031°59'0 0.0
2018-Nov-04 01:29N 46°51' E 031°59'0 0.0
2018-Nov-04 01:02N 46°51' E 031°59'0 0.2
2018-Nov-04 00:59N 46°51' E 031°59'0 0.0
2018-Nov-04 00:29N 46°51' E 031°59'0 0.0
2018-Nov-04 00:02N 46°51' E 031°59'0 0.3
2018-Nov-03 23:59N 46°51' E 031°59'0 0.0
2018-Nov-03 23:29N 46°51' E 031°59'0 0.0
2018-Nov-03 23:02N 46°51' E 031°59'0 0.1
2018-Nov-03 22:59N 46°51' E 031°59'0 0.0
2018-Nov-03 22:29N 46°51' E 031°59'0 0.0
2018-Nov-03 20:29N 46°51' E 031°59'0 0.0
2018-Nov-03 20:02N 46°51' E 031°59'0 0.1
2018-Nov-03 19:59N 46°51' E 031°59'0 0.0
2018-Nov-03 19:29N 46°51' E 031°59'0 0.0
2018-Nov-03 19:02N 46°51' E 031°59'0 0.1
2018-Nov-03 18:59N 46°51' E 031°59'0 0.0
2018-Nov-03 18:29N 46°51' E 031°59'0 0.0
2018-Nov-03 18:02N 46°51' E 031°59'0 0.1
2018-Nov-03 17:59N 46°51' E 031°59'0 0.0
2018-Nov-03 17:29N 46°51' E 031°59'0 0.0
2018-Nov-03 17:02N 46°51' E 031°59'0 0.1
2018-Nov-03 16:59N 46°51' E 031°59'0 0.0
2018-Nov-03 16:29N 46°51' E 031°59'0 0.0
2018-Nov-03 16:02N 46°51' E 031°59'0 0.1
2018-Nov-03 15:59N 46°51' E 031°59'0 0.0
2018-Nov-03 15:29N 46°51' E 031°59'0 0.0
2018-Nov-03 15:02N 46°51' E 031°59'0 0.0
2018-Nov-03 14:59N 46°51' E 031°59'0 0.0
2018-Nov-03 14:29N 46°51' E 031°59'0 0.4
2018-Nov-03 14:02N 46°51' E 031°59'0 1.6
2018-Nov-03 13:59N 46°51' E 031°59'0 0.9
2018-Nov-03 13:28N 46°52' E 031°58'0 0.0
2018-Nov-03 13:01N 46°52' E 031°58'0 0.1
2018-Nov-03 12:58N 46°52' E 031°58'0 0.0
2018-Nov-03 12:28N 46°52' E 031°58'0 0.1
2018-Nov-03 11:58N 46°52' E 031°58'0 0.1
2018-Nov-03 11:28N 46°52' E 031°58'0 0.2
2018-Nov-03 11:01N 46°52' E 031°58'0 0.2
2018-Nov-03 10:58N 46°52' E 031°58'0 0.0
2018-Nov-03 09:52N 46°52' E 031°58'0 0.0
2018-Nov-03 09:28N 46°52' E 031°58'0 0.0
2018-Nov-03 09:01N 46°52' E 031°58'0 0.1
2018-Nov-03 08:58N 46°52' E 031°58'0 0.0
2018-Nov-03 08:28N 46°52' E 031°58'0 0.0
2018-Nov-03 08:01N 46°52' E 031°58'0 0.1
2018-Nov-03 07:58N 46°52' E 031°58'0 0.0
2018-Nov-03 07:28N 46°52' E 031°58'0 0.0
2018-Nov-03 07:01N 46°52' E 031°58'0 0.2
2018-Nov-03 06:58N 46°52' E 031°58'0 0.1
2018-Nov-03 06:28N 46°52' E 031°58'0 0.1
2018-Nov-03 05:58N 46°51' E 031°58'0 0.0
2018-Nov-03 05:28N 46°51' E 031°58'0 0.1
2018-Nov-03 05:01N 46°52' E 031°58'0 0.1
2018-Nov-03 04:58N 46°52' E 031°58'0 0.0
2018-Nov-03 04:28N 46°52' E 031°58'0 0.0
2018-Nov-03 04:01N 46°51' E 031°58'0 0.1
2018-Nov-03 03:58N 46°51' E 031°58'0 0.1
2018-Nov-03 03:28N 46°52' E 031°58'0 0.6
2018-Nov-03 03:01N 46°51' E 031°58'0 2.6
2018-Nov-03 02:58N 46°51' E 031°58'2 4.7
2018-Nov-03 02:30N 46°50' E 031°56'3 6.1
2018-Nov-03 02:03N 46°48' E 031°53'0 9.0
2018-Nov-03 02:00N 46°47' E 031°53'5 9.6
2018-Nov-03 01:30N 46°43' E 031°56'510.4
2018-Nov-03 01:03N 46°38' E 031°55'110.7
2018-Nov-03 01:00N 46°38' E 031°54'510.8
2018-Nov-03 00:30N 46°36' E 031°47'511.0
2018-Nov-03 00:03N 46°36' E 031°40'111.0
2018-Nov-03 00:00N 46°36' E 031°39'510.6
2018-Nov-02 23:30N 46°35' E 031°31'4 9.2
2018-Nov-02 23:03N 46°35' E 031°25'310.6
2018-Nov-02 22:47N 46°35' E 031°21'310.8
2018-Nov-02 22:30N 46°35' E 031°17'510.6
2018-Nov-02 22:03N 46°35' E 031°10'110.7
2018-Nov-02 22:00N 46°35' E 031°09'510.5
2018-Nov-02 21:30N 46°34' E 031°02'3 7.1
2018-Nov-02 21:03N 46°32' E 030°57'1 7.7
2018-Nov-02 20:58N 46°32' E 030°57'5 9.8
2018-Nov-02 20:30N 46°27' E 030°57'511.4
2018-Nov-02 20:03N 46°22' E 030°57'111.2
2018-Nov-02 19:58N 46°21' E 030°57'4 7.7
2018-Nov-02 19:30N 46°18' E 030°60'3 7.2
2018-Nov-02 19:02N 46°18' E 031°05'0 6.9
2018-Nov-02 19:00N 46°18' E 031°05'2 3.0
2018-Nov-02 18:25N 46°20' E 031°06'0 0.0
2018-Nov-02 18:01N 46°20' E 031°06'0 0.3
2018-Nov-02 17:52N 46°20' E 031°06'0 0.1
2018-Nov-02 17:28N 46°20' E 031°06'0 0.0
2018-Nov-02 16:31N 46°20' E 031°06'0 0.0
2018-Nov-02 15:40N 46°20' E 031°06'0 0.0
2018-Nov-02 15:22N 46°20' E 031°06'0 0.0
2018-Nov-02 14:58N 46°20' E 031°06'0 0.0
2018-Nov-02 13:37N 46°20' E 031°06'0 0.0
2018-Nov-02 13:13N 46°20' E 031°06'0 0.1
2018-Nov-02 12:55N 46°20' E 031°06'0 0.0
2018-Nov-02 12:10N 46°20' E 031°06'0 0.0
2018-Nov-02 11:46N 46°20' E 031°06'0 0.0
2018-Nov-02 11:07N 46°20' E 031°06'0 0.2
2018-Nov-02 11:01N 46°20' E 031°06'0 0.0
2018-Nov-02 09:37N 46°20' E 031°06'0 0.0
2018-Nov-02 08:52N 46°20' E 031°06'0 0.0
2018-Nov-02 08:28N 46°20' E 031°06'0 0.0
2018-Nov-02 07:49N 46°20' E 031°06'0 0.0
2018-Nov-02 07:19N 46°20' E 031°06'0 0.1
2018-Nov-02 07:01N 46°20' E 031°06'0 0.3
2018-Nov-02 06:58N 46°20' E 031°06'0 0.0
2018-Nov-02 06:10N 46°20' E 031°06'0 0.2
2018-Nov-02 05:58N 46°20' E 031°06'0 0.1
2018-Nov-02 05:28N 46°20' E 031°06'0 0.1
2018-Nov-02 04:52N 46°20' E 031°06'1 2.3
2018-Nov-02 04:30N 46°19' E 031°07'2 5.6
2018-Nov-02 04:04N 46°16' E 031°07'0 8.0
2018-Nov-02 04:01N 46°16' E 031°07'4 8.0
2018-Nov-02 03:31N 46°12' E 031°08'510.8
2018-Nov-02 03:04N 46°07' E 031°08'110.7
2018-Nov-02 03:01N 46°07' E 031°08'1110.8
2018-Nov-02 01:57N 45°55' E 031°05'710.7
2018-Nov-02 01:21N 45°49' E 031°04'410.8
2018-Nov-02 00:58N 45°45' E 031°03'011.0
2018-Nov-02 00:56N 45°44' E 031°03'410.8
2018-Nov-02 00:31N 45°40' E 031°03'010.7
2018-Nov-02 00:31N 45°40' E 031°02'3210.8
2018-Nov-01 21:32N 45°08' E 030°59'0 9.2
2018-Nov-01 21:30N 45°07' E 030°59'4 2.3
2018-Nov-01 19:36N 45°05' E 031°04'0 2.0
2018-Nov-01 19:21N 45°05' E 031°05'1 2.0
2018-Nov-01 18:54N 45°05' E 031°06'36 7.1
2018-Nov-01 13:52N 44°29' E 031°13'510.7
2018-Nov-01 13:25N 44°24' E 031°14'510.8
2018-Nov-01 12:59N 44°20' E 031°14'1010.9
2018-Nov-01 12:02N 44°09' E 031°14'011.0
2018-Nov-01 12:00N 44°09' E 031°14'3211.2
2018-Nov-01 09:07N 43°37' E 031°15'411.2
2018-Nov-01 08:47N 43°33' E 031°15'1911.0
2018-Nov-01 07:01N 43°13' E 031°16'611.0
2018-Nov-01 06:30N 43°08' E 031°16'1211.0
2018-Nov-01 05:23N 42°56' E 031°17'1410.7
2018-Nov-01 04:02N 42°41' E 031°18'  
Track history (hours):
 
Tides and Currents Weather Stations Pressure Air Temp Water Temp Dewpoint Dewpoint Depression Visibility Wind Speed Wind Dir Waves Ship Positions

Tamrey S

Last reported at 2018-Nov-08 00:49 UTC. Time now 2018-Nov-17 04:25 UTC.
Position N 44°51' E 030°31'.
Warning: this ship's position is 9 days out of date.

Length 176 m; draft 9.9 m.

Type: Cargo ship. MMSI: 271044600.

Date/timePositionNaut miles runAvg speedWind from/ knotsBaromVisibWave heightAir tempDewpointWater temp
2018-Nov-08 00:49N 44°51' E 030°31'210.3
2018-Nov-08 00:35N 44°53' E 030°32'3510.2
2018-Nov-07 21:10N 45°26' E 030°46'49 9.1
2018-Nov-07 15:46N 46°15' E 030°54'410.1
2018-Nov-07 15:21N 46°19' E 030°56'310.0
2018-Nov-07 15:01N 46°22' E 030°56'510.0
2018-Nov-07 14:31N 46°27' E 030°55'5 9.6
2018-Nov-07 14:02N 46°32' E 030°56'21 9.1
2018-Nov-07 11:47N 46°35' E 031°25'3 8.4
2018-Nov-07 11:27N 46°36' E 031°29'5 7.7
2018-Nov-07 10:46N 46°35' E 031°37'2 8.3
2018-Nov-07 10:31N 46°36' E 031°40'6 8.4
2018-Nov-07 09:49N 46°36' E 031°48'2 8.2
2018-Nov-07 09:32N 46°37' E 031°51'4 7.9
2018-Nov-07 09:03N 46°39' E 031°56'4 8.3
2018-Nov-07 08:32N 46°43' E 031°56'4 7.6
2018-Nov-07 08:03N 46°47' E 031°53'4 7.1
2018-Nov-07 07:33N 46°50' E 031°56'2 4.7
2018-Nov-07 07:02N 46°51' E 031°58'0 0.9
2018-Nov-07 06:32N 46°51' E 031°59'0 0.0
2018-Nov-07 06:02N 46°51' E 031°59'0 0.0
2018-Nov-07 05:29N 46°51' E 031°59'0 0.0
2018-Nov-07 05:02N 46°51' E 031°59'0 0.0
2018-Nov-07 04:32N 46°51' E 031°59'0 0.0
2018-Nov-06 23:29N 46°51' E 031°59'0 0.0
2018-Nov-06 23:02N 46°51' E 031°59'0 0.1
2018-Nov-06 22:59N 46°51' E 031°59'0 0.0
2018-Nov-06 21:59N 46°51' E 031°59'0 0.0
2018-Nov-06 21:29N 46°51' E 031°59'0 0.0
2018-Nov-06 21:02N 46°51' E 031°59'0 0.1
2018-Nov-06 20:59N 46°51' E 031°59'0 0.0
2018-Nov-06 20:29N 46°51' E 031°59'0 0.0
2018-Nov-06 20:02N 46°51' E 031°59'0 0.1
2018-Nov-06 19:59N 46°51' E 031°59'0 0.0
2018-Nov-06 19:29N 46°51' E 031°59'0 0.0
2018-Nov-06 19:02N 46°51' E 031°59'0 0.1
2018-Nov-06 18:59N 46°51' E 031°59'0 0.0
2018-Nov-06 18:29N 46°51' E 031°59'0 0.0
2018-Nov-06 18:02N 46°51' E 031°59'0 0.1
2018-Nov-06 17:59N 46°51' E 031°59'0 0.0
2018-Nov-06 17:29N 46°51' E 031°59'0 0.0
2018-Nov-06 17:02N 46°51' E 031°59'0 0.0
2018-Nov-06 16:59N 46°51' E 031°59'0 0.0
2018-Nov-06 16:29N 46°51' E 031°59'0 0.0
2018-Nov-06 16:02N 46°51' E 031°59'0 0.1
2018-Nov-06 15:56N 46°51' E 031°59'0 0.0
2018-Nov-06 15:29N 46°51' E 031°59'0 0.0
2018-Nov-06 15:02N 46°51' E 031°59'0 0.1
2018-Nov-06 14:59N 46°51' E 031°59'0 0.0
2018-Nov-06 14:26N 46°51' E 031°59'0 0.0
2018-Nov-06 13:59N 46°51' E 031°59'0 0.0
2018-Nov-06 13:29N 46°51' E 031°59'0 0.0
2018-Nov-06 13:02N 46°51' E 031°59'0 0.1
2018-Nov-06 12:59N 46°51' E 031°59'0 0.0
2018-Nov-06 12:29N 46°51' E 031°59'0 0.0
2018-Nov-06 12:02N 46°51' E 031°59'0 0.1
2018-Nov-06 11:59N 46°51' E 031°59'0 0.0
2018-Nov-06 11:29N 46°51' E 031°59'0 0.0
2018-Nov-06 11:02N 46°51' E 031°59'0 0.1
2018-Nov-06 10:59N 46°51' E 031°59'0 0.0
2018-Nov-06 10:29N 46°51' E 031°59'0 0.0
2018-Nov-06 10:02N 46°51' E 031°59'0 0.3
2018-Nov-06 09:59N 46°51' E 031°59'0 0.0
2018-Nov-06 09:29N 46°51' E 031°59'0 0.0
2018-Nov-06 09:02N 46°51' E 031°59'0 0.1
2018-Nov-06 08:59N 46°51' E 031°59'0 0.0
2018-Nov-06 08:29N 46°51' E 031°59'0 0.0
2018-Nov-06 07:59N 46°51' E 031°59'0 0.0
2018-Nov-06 07:29N 46°51' E 031°59'0 0.0
2018-Nov-06 07:02N 46°51' E 031°59'0 0.1
2018-Nov-06 06:59N 46°51' E 031°59'0 0.0
2018-Nov-06 06:26N 46°51' E 031°59'0 0.0
2018-Nov-06 06:02N 46°51' E 031°59'0 0.1
2018-Nov-06 05:59N 46°51' E 031°59'0 0.0
2018-Nov-06 05:29N 46°51' E 031°59'0 0.0
2018-Nov-06 05:02N 46°51' E 031°59'0 0.2
2018-Nov-06 04:59N 46°51' E 031°59'0 0.0
2018-Nov-06 04:29N 46°51' E 031°59'0 0.0
2018-Nov-06 03:59N 46°51' E 031°59'0 0.0
2018-Nov-06 03:29N 46°51' E 031°59'0 0.0
2018-Nov-06 03:02N 46°51' E 031°59'0 0.1
2018-Nov-06 02:59N 46°51' E 031°59'0 0.0
2018-Nov-06 02:29N 46°51' E 031°59'0 0.0
2018-Nov-06 02:02N 46°51' E 031°59'0 0.0
2018-Nov-06 01:59N 46°51' E 031°59'0 0.0
2018-Nov-06 01:26N 46°51' E 031°59'0 0.0
2018-Nov-06 00:29N 46°51' E 031°59'0 0.0
2018-Nov-05 23:29N 46°51' E 031°59'0 0.0
2018-Nov-05 23:02N 46°51' E 031°59'0 0.1
2018-Nov-05 22:59N 46°51' E 031°59'0 0.0
2018-Nov-05 22:29N 46°51' E 031°59'0 0.0
2018-Nov-05 22:02N 46°51' E 031°59'0 0.0
2018-Nov-05 21:59N 46°51' E 031°59'0 0.0
2018-Nov-05 21:29N 46°51' E 031°59'0 0.0
2018-Nov-05 20:59N 46°51' E 031°59'0 0.0
2018-Nov-05 20:29N 46°51' E 031°59'0 0.0
2018-Nov-05 20:02N 46°51' E 031°59'0 0.1
2018-Nov-05 19:59N 46°51' E 031°59'0 0.0
2018-Nov-05 19:29N 46°51' E 031°59'0 0.0
2018-Nov-05 19:02N 46°51' E 031°59'0 0.0
2018-Nov-05 18:59N 46°51' E 031°59'0 0.0
2018-Nov-05 18:29N 46°51' E 031°59'0 0.0
2018-Nov-05 18:02N 46°51' E 031°59'0 0.1
2018-Nov-05 17:59N 46°51' E 031°59'0 0.0
2018-Nov-05 17:29N 46°51' E 031°59'0 0.0
2018-Nov-05 16:59N 46°51' E 031°59'0 0.0
2018-Nov-05 16:29N 46°51' E 031°59'0 0.0
2018-Nov-05 16:02N 46°51' E 031°59'0 0.1
2018-Nov-05 15:59N 46°51' E 031°59'0 0.0
2018-Nov-05 15:29N 46°51' E 031°59'0 0.0
2018-Nov-05 15:02N 46°51' E 031°59'0 0.0
2018-Nov-05 14:59N 46°51' E 031°59'0 0.0
2018-Nov-05 14:29N 46°51' E 031°59'0 0.0
2018-Nov-05 14:02N 46°51' E 031°59'0 0.0
2018-Nov-05 13:29N 46°51' E 031°59'0 0.0
2018-Nov-05 13:02N 46°51' E 031°59'0 0.1
2018-Nov-05 12:59N 46°51' E 031°59'0 0.0
2018-Nov-05 12:29N 46°51' E 031°59'0 0.0
2018-Nov-05 12:02N 46°51' E 031°59'0 0.1
2018-Nov-05 11:59N 46°51' E 031°59'0 0.0
2018-Nov-05 11:29N 46°51' E 031°59'0 0.0
2018-Nov-05 11:02N 46°51' E 031°59'0 0.1
2018-Nov-05 10:59N 46°51' E 031°59'0 0.0
2018-Nov-05 10:29N 46°51' E 031°59'0 0.0
2018-Nov-05 10:02N 46°51' E 031°59'0 0.0
2018-Nov-05 09:59N 46°51' E 031°59'0 0.0
2018-Nov-05 09:29N 46°51' E 031°59'0 0.0
2018-Nov-05 09:02N 46°51' E 031°59'0 0.1
2018-Nov-05 08:59N 46°51' E 031°59'0 0.0
2018-Nov-05 08:29N 46°51' E 031°59'0 0.0
2018-Nov-05 08:02N 46°51' E 031°59'0 0.1
2018-Nov-05 07:59N 46°51' E 031°59'0 0.0
2018-Nov-05 07:29N 46°51' E 031°59'0 0.0
2018-Nov-05 07:02N 46°51' E 031°59'0 0.0
2018-Nov-05 06:59N 46°51' E 031°59'0 0.0
2018-Nov-05 06:29N 46°51' E 031°59'0 0.0
2018-Nov-05 06:02N 46°51' E 031°59'0 0.1
2018-Nov-05 05:59N 46°51' E 031°59'0 0.0
2018-Nov-05 05:29N 46°51' E 031°59'0 0.0
2018-Nov-05 05:02N 46°51' E 031°59'0 0.0
2018-Nov-05 04:59N 46°51' E 031°59'0 0.0
2018-Nov-05 04:29N 46°51' E 031°59'0 0.0
2018-Nov-05 04:02N 46°51' E 031°59'0 0.0
2018-Nov-05 03:59N 46°51' E 031°59'0 0.0
2018-Nov-05 03:29N 46°51' E 031°59'0 0.0
2018-Nov-05 03:02N 46°51' E 031°59'0 0.1
2018-Nov-05 02:59N 46°51' E 031°59'0 0.0
2018-Nov-05 02:29N 46°51' E 031°59'0 0.0
2018-Nov-05 02:02N 46°51' E 031°59'0 0.1
2018-Nov-05 01:59N 46°51' E 031°59'0 0.0
2018-Nov-05 01:29N 46°51' E 031°59'0 0.0
2018-Nov-05 01:02N 46°51' E 031°59'0 0.4
2018-Nov-05 00:59N 46°51' E 031°59'0 0.0
2018-Nov-05 00:29N 46°51' E 031°59'0 0.0
2018-Nov-05 00:02N 46°51' E 031°59'0 0.0
2018-Nov-04 23:59N 46°51' E 031°59'0 0.0
2018-Nov-04 23:29N 46°51' E 031°59'0 0.0
2018-Nov-04 23:02N 46°51' E 031°59'0 0.1
2018-Nov-04 22:59N 46°51' E 031°59'0 0.0
2018-Nov-04 22:29N 46°51' E 031°59'0 0.0
2018-Nov-04 22:02N 46°51' E 031°59'0 0.1
2018-Nov-04 21:59N 46°51' E 031°59'0 0.0
2018-Nov-04 21:29N 46°51' E 031°59'0 0.0
2018-Nov-04 21:02N 46°51' E 031°59'0 0.1
2018-Nov-04 20:59N 46°51' E 031°59'0 0.0
2018-Nov-04 20:29N 46°51' E 031°59'0 0.0
2018-Nov-04 20:02N 46°51' E 031°59'0 0.0
2018-Nov-04 19:59N 46°51' E 031°59'0 0.0
2018-Nov-04 19:29N 46°51' E 031°59'0 0.0
2018-Nov-04 18:59N 46°51' E 031°59'0 0.0
2018-Nov-04 18:29N 46°51' E 031°59'0 0.0
2018-Nov-04 18:02N 46°51' E 031°59'0 0.0
2018-Nov-04 17:59N 46°51' E 031°59'0 0.0
2018-Nov-04 17:29N 46°51' E 031°59'0 0.0
2018-Nov-04 16:59N 46°51' E 031°59'0 0.0
2018-Nov-04 16:29N 46°51' E 031°59'0 0.0
2018-Nov-04 16:02N 46°51' E 031°59'0 0.1
2018-Nov-04 15:59N 46°51' E 031°59'0 0.0
2018-Nov-04 15:29N 46°51' E 031°59'0 0.0
2018-Nov-04 15:02N 46°51' E 031°59'0 0.0
2018-Nov-04 14:59N 46°51' E 031°59'0 0.0
2018-Nov-04 14:29N 46°51' E 031°59'0 0.0
2018-Nov-04 14:02N 46°51' E 031°59'0 0.1
2018-Nov-04 13:59N 46°51' E 031°59'0 0.0
2018-Nov-04 13:29N 46°51' E 031°59'0 0.0
2018-Nov-04 13:02N 46°51' E 031°59'0 0.0
2018-Nov-04 12:59N 46°51' E 031°59'0 0.0
2018-Nov-04 12:29N 46°51' E 031°59'0 0.0
2018-Nov-04 12:02N 46°51' E 031°59'0 0.0
2018-Nov-04 11:59N 46°51' E 031°59'0 0.0
2018-Nov-04 11:29N 46°51' E 031°59'0 0.0
2018-Nov-04 11:02N 46°51' E 031°59'0 0.1
2018-Nov-04 10:59N 46°51' E 031°59'0 0.0
2018-Nov-04 10:29N 46°51' E 031°59'0 0.0
2018-Nov-04 10:02N 46°51' E 031°59'0 0.1
2018-Nov-04 09:59N 46°51' E 031°59'0 0.0
2018-Nov-04 09:29N 46°51' E 031°59'0 0.0
2018-Nov-04 09:02N 46°51' E 031°59'0 0.1
2018-Nov-04 08:59N 46°51' E 031°59'0 0.0
2018-Nov-04 08:29N 46°51' E 031°59'0 0.0
2018-Nov-04 08:02N 46°51' E 031°59'0 0.0
2018-Nov-04 07:59N 46°51' E 031°59'0 0.0
2018-Nov-04 07:29N 46°51' E 031°59'0 0.0
2018-Nov-04 07:02N 46°51' E 031°59'0 0.1
2018-Nov-04 06:59N 46°51' E 031°59'0 0.0
2018-Nov-04 06:29N 46°51' E 031°59'0 0.0
2018-Nov-04 06:02N 46°51' E 031°59'0 0.1
2018-Nov-04 05:59N 46°51' E 031°59'0 0.0
2018-Nov-04 05:29N 46°51' E 031°59'0 0.0
2018-Nov-04 05:02N 46°51' E 031°59'0 0.0
2018-Nov-04 04:59N 46°51' E 031°59'0 0.0
2018-Nov-04 04:29N 46°51' E 031°59'0 0.0
2018-Nov-04 04:02N 46°51' E 031°59'0 0.1
2018-Nov-04 03:59N 46°51' E 031°59'0 0.0
2018-Nov-04 03:29N 46°51' E 031°59'0 0.0
2018-Nov-04 03:02N 46°51' E 031°59'0 0.0
2018-Nov-04 02:59N 46°51' E 031°59'0 0.0
2018-Nov-04 02:29N 46°51' E 031°59'0 0.0
2018-Nov-04 02:02N 46°51' E 031°59'0 0.1
2018-Nov-04 01:59N 46°51' E 031°59'0 0.0
2018-Nov-04 01:29N 46°51' E 031°59'0 0.0
2018-Nov-04 01:02N 46°51' E 031°59'0 0.2
2018-Nov-04 00:59N 46°51' E 031°59'0 0.0
2018-Nov-04 00:29N 46°51' E 031°59'0 0.0
2018-Nov-04 00:02N 46°51' E 031°59'0 0.3
2018-Nov-03 23:59N 46°51' E 031°59'0 0.0
2018-Nov-03 23:29N 46°51' E 031°59'0 0.0
2018-Nov-03 23:02N 46°51' E 031°59'0 0.1
2018-Nov-03 22:59N 46°51' E 031°59'0 0.0
2018-Nov-03 22:29N 46°51' E 031°59'0 0.0
2018-Nov-03 20:29N 46°51' E 031°59'0 0.0
2018-Nov-03 20:02N 46°51' E 031°59'0 0.1
2018-Nov-03 19:59N 46°51' E 031°59'0 0.0
2018-Nov-03 19:29N 46°51' E 031°59'0 0.0
2018-Nov-03 19:02N 46°51' E 031°59'0 0.1
2018-Nov-03 18:59N 46°51' E 031°59'0 0.0
2018-Nov-03 18:29N 46°51' E 031°59'0 0.0
2018-Nov-03 18:02N 46°51' E 031°59'0 0.1
2018-Nov-03 17:59N 46°51' E 031°59'0 0.0
2018-Nov-03 17:29N 46°51' E 031°59'0 0.0
2018-Nov-03 17:02N 46°51' E 031°59'0 0.1
2018-Nov-03 16:59N 46°51' E 031°59'0 0.0
2018-Nov-03 16:29N 46°51' E 031°59'0 0.0
2018-Nov-03 16:02N 46°51' E 031°59'0 0.1
2018-Nov-03 15:59N 46°51' E 031°59'0 0.0
2018-Nov-03 15:29N 46°51' E 031°59'0 0.0
2018-Nov-03 15:02N 46°51' E 031°59'0 0.0
2018-Nov-03 14:59N 46°51' E 031°59'0 0.0
2018-Nov-03 14:29N 46°51' E 031°59'0 0.4
2018-Nov-03 14:02N 46°51' E 031°59'0 1.6
2018-Nov-03 13:59N 46°51' E 031°59'0 0.9
2018-Nov-03 13:28N 46°52' E 031°58'0 0.0
2018-Nov-03 13:01N 46°52' E 031°58'0 0.1
2018-Nov-03 12:58N 46°52' E 031°58'0 0.0
2018-Nov-03 12:28N 46°52' E 031°58'0 0.1
2018-Nov-03 11:58N 46°52' E 031°58'0 0.1
2018-Nov-03 11:28N 46°52' E 031°58'0 0.2
2018-Nov-03 11:01N 46°52' E 031°58'0 0.2
2018-Nov-03 10:58N 46°52' E 031°58'0 0.0
2018-Nov-03 09:52N 46°52' E 031°58'0 0.0
2018-Nov-03 09:28N 46°52' E 031°58'0 0.0
2018-Nov-03 09:01N 46°52' E 031°58'0 0.1
2018-Nov-03 08:58N 46°52' E 031°58'0 0.0
2018-Nov-03 08:28N 46°52' E 031°58'0 0.0
2018-Nov-03 08:01N 46°52' E 031°58'0 0.1
2018-Nov-03 07:58N 46°52' E 031°58'0 0.0
2018-Nov-03 07:28N 46°52' E 031°58'0 0.0
2018-Nov-03 07:01N 46°52' E 031°58'0 0.2
2018-Nov-03 06:58N 46°52' E 031°58'0 0.1
2018-Nov-03 06:28N 46°52' E 031°58'0 0.1
2018-Nov-03 05:58N 46°51' E 031°58'0 0.0
2018-Nov-03 05:28N 46°51' E 031°58'0 0.1
2018-Nov-03 05:01N 46°52' E 031°58'0 0.1
2018-Nov-03 04:58N 46°52' E 031°58'0 0.0
2018-Nov-03 04:28N 46°52' E 031°58'0 0.0
2018-Nov-03 04:01N 46°51' E 031°58'0 0.1
2018-Nov-03 03:58N 46°51' E 031°58'0 0.1
2018-Nov-03 03:28N 46°52' E 031°58'0 0.6
2018-Nov-03 03:01N 46°51' E 031°58'0 2.6
2018-Nov-03 02:58N 46°51' E 031°58'2 4.7
2018-Nov-03 02:30N 46°50' E 031°56'3 6.1
2018-Nov-03 02:03N 46°48' E 031°53'0 9.0
2018-Nov-03 02:00N 46°47' E 031°53'5 9.6
2018-Nov-03 01:30N 46°43' E 031°56'510.4
2018-Nov-03 01:03N 46°38' E 031°55'110.7
2018-Nov-03 01:00N 46°38' E 031°54'510.8
2018-Nov-03 00:30N 46°36' E 031°47'511.0
2018-Nov-03 00:03N 46°36' E 031°40'111.0
2018-Nov-03 00:00N 46°36' E 031°39'510.6
2018-Nov-02 23:30N 46°35' E 031°31'4 9.2
2018-Nov-02 23:03N 46°35' E 031°25'310.6
2018-Nov-02 22:47N 46°35' E 031°21'310.8
2018-Nov-02 22:30N 46°35' E 031°17'510.6
2018-Nov-02 22:03N 46°35' E 031°10'110.7
2018-Nov-02 22:00N 46°35' E 031°09'510.5
2018-Nov-02 21:30N 46°34' E 031°02'3 7.1
2018-Nov-02 21:03N 46°32' E 030°57'1 7.7
2018-Nov-02 20:58N 46°32' E 030°57'5 9.8
2018-Nov-02 20:30N 46°27' E 030°57'511.4
2018-Nov-02 20:03N 46°22' E 030°57'111.2
2018-Nov-02 19:58N 46°21' E 030°57'4 7.7
2018-Nov-02 19:30N 46°18' E 030°60'3 7.2
2018-Nov-02 19:02N 46°18' E 031°05'0 6.9
2018-Nov-02 19:00N 46°18' E 031°05'2 3.0
2018-Nov-02 18:25N 46°20' E 031°06'0 0.0
2018-Nov-02 18:01N 46°20' E 031°06'0 0.3
2018-Nov-02 17:52N 46°20' E 031°06'0 0.1
2018-Nov-02 17:28N 46°20' E 031°06'0 0.0
2018-Nov-02 16:31N 46°20' E 031°06'0 0.0
2018-Nov-02 15:40N 46°20' E 031°06'0 0.0
2018-Nov-02 15:22N 46°20' E 031°06'0 0.0
2018-Nov-02 14:58N 46°20' E 031°06'0 0.0
2018-Nov-02 13:37N 46°20' E 031°06'0 0.0
2018-Nov-02 13:13N 46°20' E 031°06'0 0.1
2018-Nov-02 12:55N 46°20' E 031°06'0 0.0
2018-Nov-02 12:10N 46°20' E 031°06'0 0.0
2018-Nov-02 11:46N 46°20' E 031°06'0 0.0
2018-Nov-02 11:07N 46°20' E 031°06'0 0.2
2018-Nov-02 11:01N 46°20' E 031°06'0 0.0
2018-Nov-02 09:37N 46°20' E 031°06'0 0.0
2018-Nov-02 08:52N 46°20' E 031°06'0 0.0
2018-Nov-02 08:28N 46°20' E 031°06'0 0.0
2018-Nov-02 07:49N 46°20' E 031°06'0 0.0
2018-Nov-02 07:19N 46°20' E 031°06'0 0.1
2018-Nov-02 07:01N 46°20' E 031°06'0 0.3
2018-Nov-02 06:58N 46°20' E 031°06'0 0.0
2018-Nov-02 06:10N 46°20' E 031°06'0 0.2
2018-Nov-02 05:58N 46°20' E 031°06'0 0.1
2018-Nov-02 05:28N 46°20' E 031°06'0 0.1
2018-Nov-02 04:52N 46°20' E 031°06'1 2.3
2018-Nov-02 04:30N 46°19' E 031°07'2 5.6
2018-Nov-02 04:04N 46°16' E 031°07'0 8.0
2018-Nov-02 04:01N 46°16' E 031°07'4 8.0
2018-Nov-02 03:31N 46°12' E 031°08'510.8
2018-Nov-02 03:04N 46°07' E 031°08'110.7
2018-Nov-02 03:01N 46°07' E 031°08'1110.8
2018-Nov-02 01:57N 45°55' E 031°05'710.7
2018-Nov-02 01:21N 45°49' E 031°04'410.8
2018-Nov-02 00:58N 45°45' E 031°03'011.0
2018-Nov-02 00:56N 45°44' E 031°03'410.8
2018-Nov-02 00:31N 45°40' E 031°03'010.7
2018-Nov-02 00:31N 45°40' E 031°02'3210.8
2018-Nov-01 21:32N 45°08' E 030°59'0 9.2
2018-Nov-01 21:30N 45°07' E 030°59'4 2.3
2018-Nov-01 19:36N 45°05' E 031°04'0 2.0
2018-Nov-01 19:21N 45°05' E 031°05'1 2.0
2018-Nov-01 18:54N 45°05' E 031°06'36 7.1
2018-Nov-01 13:52N 44°29' E 031°13'510.7
2018-Nov-01 13:25N 44°24' E 031°14'510.8
2018-Nov-01 12:59N 44°20' E 031°14'1010.9
2018-Nov-01 12:02N 44°09' E 031°14'011.0
2018-Nov-01 12:00N 44°09' E 031°14'3211.2
2018-Nov-01 09:07N 43°37' E 031°15'411.2
2018-Nov-01 08:47N 43°33' E 031°15'1911.0
2018-Nov-01 07:01N 43°13' E 031°16'611.0
2018-Nov-01 06:30N 43°08' E 031°16'1211.0
2018-Nov-01 05:23N 42°56' E 031°17'1410.7
2018-Nov-01 04:02N 42°41' E 031°18'  

Dump ship's entire track history